Latest Weather Observations for Richmond

IDN60801

Issued at 9:02 pm EDT Tuesday 6 December 2016 (issued every 30 minutes, with the page automatically refreshed every 10 minutes)

About weather observations | Map of weather stations | Latest weather observations for NSW | Other Formats
Station Details ID: 067105 Name: RICHMOND RAAF Lat: -33.60 Lon: 150.78 Height: 19.0 m
Data from the previous 72 hours. | See also: Recent months at Richmond
Date/Time
EDT
Temp
°C
App
Temp
°C
Dew
Point
°C
Rel
Hum
%
Delta-T
°C
Wind Press
QNH
hPa
Press
MSL
hPa
Rain since
9am
mm
Dir  Spd
km/h
Gust
km/h
Spd
kts
Gust
kts
06/09:00pm 22.6 26.4 21.6 94 0.7 W 4 6 2 3 1011.6 1011.5 1.4
06/08:30pm 22.7 25.8 21.0 90 1.1 NW 6 9 3 5 1011.4 1011.3 1.0
06/08:00pm 22.7 27.1 21.3 92 0.9 CALM 0 6 0 3 1010.8 1010.7 1.0
06/07:30pm 22.8 26.0 21.6 93 0.8 N 7 11 4 6 1010.5 1010.4 1.0
06/07:00pm 22.9 25.9 21.9 94 0.7 NNE 9 13 5 7 1010.6 1010.5 1.0
06/06:30pm 22.9 25.9 21.9 94 0.7 N 9 13 5 7 1010.4 1010.3 1.0
06/06:00pm 22.9 26.0 22.2 96 0.5 N 9 11 5 6 1010.2 1010.1 1.0
06/05:37pm 22.8 25.1 22.0 95 0.5 N 13 15 7 8 1010.1 1010.0 1.0
06/05:30pm 22.9 25.6 22.2 96 0.5 N 11 15 6 8 1010.2 1010.1 1.0
06/05:00pm 22.7 25.7 21.9 95 0.5 N 9 11 5 6 1010.2 1010.1 1.0
06/04:41pm 23.0 26.5 22.2 95 0.5 NNW 7 9 4 5 1010.4 1010.3 1.0
06/04:38pm 22.8 26.0 21.6 93 0.8 NNW 7 9 4 5 1010.4 1010.3 1.0
06/04:30pm 23.2 26.7 22.2 94 0.7 NNW 7 9 4 5 1010.6 1010.5 1.0
06/04:26pm 23.2 26.8 22.0 93 0.8 NW 6 7 3 4 1010.6 1010.5 1.0
06/04:00pm 23.2 26.3 21.5 90 1.1 NNW 7 9 4 5 1010.9 1010.8 0.4
06/03:30pm 24.1 27.9 21.0 83 2.0 SE 2 7 1 4 1010.4 1010.3 0.4
06/03:00pm 24.8 26.9 20.1 75 3.1 S 9 13 5 7 1010.7 1010.6 0.0
06/02:30pm 24.9 27.2 19.9 74 3.2 ESE 7 11 4 6 1010.6 1010.5 0.0
06/02:00pm 24.8 27.4 20.5 77 2.8 ENE 7 11 4 6 1010.9 1010.8 0.0
06/01:30pm 24.6 26.9 20.7 79 2.6 NE 9 13 5 7 1010.7 1010.6 0.0
06/01:00pm 24.5 26.2 19.3 73 3.3 ENE 9 15 5 8 1010.8 1010.7 0.0
06/12:30pm 24.9 26.6 19.3 71 3.6 ENE 9 13 5 7 1010.9 1010.8 0.0
06/12:00pm 24.2 25.3 18.8 72 3.4 NE 11 15 6 8 1011.1 1011.0 0.0
06/11:30am 24.7 26.4 19.3 72 3.5 NE 9 13 5 7 1011.3 1011.2 0.0
06/11:00am 24.3 26.0 19.4 74 3.1 ENE 9 15 5 8 1011.4 1011.3 0.0
06/10:30am 23.4 25.0 19.1 77 2.7 NNE 9 13 5 7 1012.2 1012.1 0.0
06/10:00am 23.4 26.1 18.7 75 3.0 ENE 2 7 1 4 1011.8 1011.7 0.0
06/09:30am 22.8 24.8 18.8 78 2.5 SSW 6 9 3 5 1012.0 1011.9 0.0
06/09:00am 22.5 25.5 19.3 82 2.0 S 2 7 1 4 1012.0 1011.9 1.2
06/08:30am 22.0 23.9 19.0 83 1.9 S 7 11 4 6 1012.5 1012.4 1.2
06/08:00am 21.7 24.4 18.7 83 1.9 SSW 2 7 1 4 1012.3 1012.2 1.2
06/07:30am 21.5 23.8 19.4 88 1.3 WSW 6 9 3 5 1012.2 1012.1 1.2
06/07:00am 21.3 24.7 19.4 89 1.2 CALM 0 0 0 0 1011.7 1011.6 1.2
06/06:30am 21.0 24.4 19.3 90 1.1 CALM 0 0 0 0 1011.2 1011.1 1.2
06/06:00am 21.0 24.5 19.5 91 1.0 CALM 0 0 0 0 1011.4 1011.3 1.2
06/05:30am 21.1 24.5 19.4 90 1.1 CALM 0 0 0 0 1011.3 1011.2 1.2
06/05:00am 21.0 24.4 19.3 90 1.1 CALM 0 0 0 0 1011.4 1011.3 1.2
06/04:30am 21.0 24.5 19.5 91 1.0 CALM 0 0 0 0 1011.3 1011.2 1.2
06/04:00am 20.9 24.4 19.6 92 0.8 CALM 0 0 0 0 1011.4 1011.3 1.2
06/03:30am 20.9 24.3 19.4 91 1.0 CALM 0 0 0 0 1011.3 1011.2 1.2
06/03:00am 21.0 24.4 19.3 90 1.1 CALM 0 0 0 0 1012.0 1011.9 1.2
06/02:30am 20.9 23.8 19.0 89 1.2 W 2 9 1 5 1012.0 1011.9 1.2
06/02:00am 20.8 22.8 18.7 88 1.3 SSW 6 7 3 4 1012.2 1012.1 1.2
06/01:30am 20.9 24.0 18.7 87 1.4 CALM 0 0 0 0 1012.9 1012.8 1.2
06/01:00am 20.7 22.4 18.6 88 1.3 S 7 11 4 6 1013.2 1013.1 1.2
06/12:30am 20.9 22.2 19.4 91 1.0 SE 11 17 6 9 1013.1 1013.0 1.2
06/12:17am 21.0 22.8 19.5 91 1.0 SSE 9 13 5 7 1013.4 1013.3 1.2
06/12:07am 21.0 22.5 19.7 92 0.8 SE 11 17 6 9 1013.2 1013.1 1.2
06/12:00am 21.2 22.4 20.0 93 0.8 SE 13 19 7 10 1013.3 1013.2 1.2
 
Date/Time
EDT
Temp
°C
App
Temp
°C
Dew
Point
°C
Rel
Hum
%
Delta-T
°C
Wind Press
QNH
hPa
Press
MSL
hPa
Rain since
9am
mm
Dir  Spd
km/h
Gust
km/h
Spd
kts
Gust
kts
05/11:30pm 22.3 23.9 20.0 87 1.5 SSE 11 22 6 12 1014.2 1014.1 0.2
05/11:00pm 23.4 22.0 20.5 84 1.9 SE 28 35 15 19 1013.2 1013.1 0.0
05/10:30pm 26.2 26.3 20.3 70 3.9 SE 20 28 11 15 1011.8 1011.7 0.0
05/10:00pm 26.1 27.5 20.4 71 3.7 SE 13 20 7 11 1011.1 1011.0 0.0
05/09:30pm 26.2 28.8 20.5 71 3.7 SSE 7 11 4 6 1010.3 1010.2 0.0
05/09:00pm 26.2 30.1 20.3 70 3.9 CALM 0 0 0 0 1009.9 1009.8 0.0
05/08:30pm 25.9 28.5 20.0 70 3.8 NW 6 9 3 5 1009.7 1009.6 0.0
05/08:00pm 26.0 27.7 20.1 70 3.8 N 11 17 6 9 1009.2 1009.1 0.0
05/07:30pm 26.7 28.4 21.0 71 3.8 NE 13 20 7 11 1009.2 1009.1 0.0
05/07:00pm 27.8 29.3 21.3 67 4.3 NNE 15 22 8 12 1008.7 1008.6 0.0
05/06:30pm 30.2 30.2 21.0 58 6.1 ESE 22 33 12 18 1008.0 1007.9 0.0
05/06:00pm 31.3 30.1 19.3 49 7.9 SE 24 35 13 19 1007.2 1007.1 0.0
05/05:30pm 32.4 32.8 18.9 44 8.8 SE 15 22 8 12 1006.8 1006.7 0.0
05/05:00pm 33.7 34.1 18.2 39 10.1 SSE 13 19 7 10 1006.8 1006.7 0.0
05/04:30pm 31.0 32.0 19.4 50 7.6 WNW 13 17 7 9 1007.2 1007.1 0.0
05/04:00pm 33.3 31.7 18.3 41 9.8 SW 24 44 13 24 1006.4 1006.3 0.0
05/03:30pm 35.1 36.8 21.0 43 9.5 S 13 15 7 8 1005.0 1004.9 0.0
05/03:00pm 35.2 37.2 21.5 45 9.3 SE 13 17 7 9 1005.1 1005.0 0.0
05/02:30pm 35.3 37.5 22.6 47 8.8 ENE 15 19 8 10 1005.1 1005.0 0.0
05/02:00pm 34.5 36.7 22.6 50 8.2 ENE 15 22 8 12 1005.6 1005.5 0.0
05/01:30pm 34.0 35.9 21.4 47 8.5 ENE 13 19 7 10 1006.2 1006.1 0.0
05/01:00pm 32.6 34.4 21.1 50 7.8 ENE 13 19 7 10 1006.6 1006.5 0.0
05/12:30pm 32.6 34.6 21.5 52 7.5 E 13 19 7 10 1006.8 1006.7 0.0
05/12:00pm 31.0 33.8 21.5 57 6.4 E 9 13 5 7 1007.2 1007.1 0.0
05/11:30am 30.3 32.3 20.8 56 6.3 E 11 17 6 9 1007.5 1007.4 0.0
05/11:00am 29.5 31.8 21.4 61 5.4 E 11 17 6 9 1008.2 1008.1 0.0
05/10:30am 28.8 31.3 21.8 66 4.7 ENE 11 17 6 9 1008.6 1008.5 0.0
05/10:00am 27.7 30.5 21.5 69 4.1 NE 9 15 5 8 1008.9 1008.8 0.0
05/09:30am 26.6 29.6 20.9 71 3.8 NNE 6 13 3 7 1009.4 1009.3 0.0
05/09:00am 25.6 28.4 20.4 73 3.4 N 6 11 3 6 1009.7 1009.6 2.6
05/08:30am 25.0 27.7 21.3 80 2.4 NNW 9 13 5 7 1009.8 1009.7 2.6
05/08:00am 23.9 26.5 22.0 89 1.3 N 11 15 6 8 1009.8 1009.7 2.6
05/07:30am 22.9 25.9 21.9 94 0.7 N 9 11 5 6 1009.8 1009.7 2.6
05/07:00am 22.9 25.9 21.9 94 0.7 N 9 13 5 7 1010.1 1010.0 2.6
05/06:30am 21.8 24.0 21.1 96 0.5 NW 11 13 6 7 1010.3 1010.2 2.6
05/06:00am 21.9 23.0 21.2 96 0.5 ESE 17 26 9 14 1010.0 1009.9 2.6
05/05:45am 21.8 23.2 21.1 96 0.5 SSE 15 22 8 12 1010.4 1010.3 2.6
05/05:30am 22.1 21.3 20.9 93 0.8 S 26 44 14 24 1011.0 1010.9 2.2
05/05:25am 21.8 21.2 20.4 92 0.9 SSW 24 44 13 24 1011.2 1011.1 1.6
05/05:14am 22.7 22.7 20.2 86 1.6 SSW 20 33 11 18 1012.0 1011.9 0.0
05/05:00am 22.1 23.3 19.8 87 1.5 S 13 22 7 12 1009.9 1009.8 0.0
05/04:30am 21.9 24.2 19.8 88 1.3 SSW 7 9 4 5 1008.9 1008.8 0.0
05/04:00am 21.7 24.8 19.4 87 1.5 SW 2 7 1 4 1008.3 1008.2 0.0
05/03:30am 21.6 24.7 19.5 88 1.3 SSW 2 9 1 5 1008.6 1008.5 0.0
05/03:00am 22.3 25.9 19.7 85 1.7 CALM 0 6 0 3 1008.5 1008.4 0.0
05/02:30am 22.2 25.7 19.6 85 1.7 CALM 0 6 0 3 1008.8 1008.7 0.0
05/02:00am 22.1 25.6 19.6 86 1.6 CALM 0 0 0 0 1009.3 1009.2 0.0
05/01:30am 22.1 25.6 19.6 86 1.6 CALM 0 6 0 3 1009.6 1009.5 0.0
05/01:00am 22.5 24.8 19.5 83 1.9 ESE 6 9 3 5 1010.1 1010.0 0.0
05/12:30am 22.8 26.3 19.6 82 2.0 CALM 0 0 0 0 1010.9 1010.8 0.0
05/12:00am 22.6 24.8 19.6 83 1.9 NNE 7 7 4 4 1010.8 1010.7 0.0
 
Date/Time
EDT
Temp
°C
App
Temp
°C
Dew
Point
°C
Rel
Hum
%
Delta-T
°C
Wind Press
QNH
hPa
Press
MSL
hPa
Rain since
9am
mm
Dir  Spd
km/h
Gust
km/h
Spd
kts
Gust
kts
04/11:30pm 22.8 24.2 19.6 82 2.0 NE 11 15 6 8 1010.7 1010.6 0.0
04/11:00pm 23.1 24.2 19.7 81 2.2 ENE 13 19 7 10 1011.0 1010.9 0.0
04/10:30pm 23.4 24.6 19.8 80 2.3 ENE 13 20 7 11 1012.1 1012.0 0.0
04/10:00pm 23.8 25.7 19.7 78 2.6 NE 9 11 5 6 1012.9 1012.8 0.0
04/09:30pm 24.1 26.0 19.8 77 2.8 ENE 9 11 5 6 1012.3 1012.2 0.0
04/09:00pm 24.4 25.5 19.7 75 3.0 ENE 13 15 7 8 1012.1 1012.0 0.0
04/08:30pm 25.1 26.3 19.9 73 3.4 ENE 13 17 7 9 1011.9 1011.8 0.0
04/08:00pm 25.6 26.7 19.7 70 3.8 ENE 13 19 7 10 1011.6 1011.5 0.0
04/07:30pm 26.7 27.8 19.6 65 4.6 E 13 17 7 9 1011.3 1011.2 0.0
04/07:00pm 27.5 27.9 19.8 63 5.0 ENE 17 20 9 11 1011.1 1011.0 0.0
04/06:30pm 28.6 28.9 19.5 58 5.9 ENE 17 22 9 12 1010.6 1010.5 0.0
04/06:00pm 29.4 29.2 19.4 55 6.5 ENE 19 24 10 13 1010.3 1010.2 0.0
04/05:30pm 31.1 30.9 19.4 49 7.7 ENE 19 22 10 12 1010.2 1010.1 0.0
04/05:00pm 31.7 31.3 19.3 47 8.1 ENE 20 26 11 14 1010.2 1010.1 0.0
04/04:30pm 32.7 32.8 19.2 44 8.9 ENE 17 24 9 13 1010.4 1010.3 0.0
04/04:00pm 32.0 32.9 17.5 42 9.3 ENE 9 20 5 11 1010.7 1010.6 0.0
04/03:30pm 32.4 32.7 17.8 41 9.4 NE 13 19 7 10 1010.9 1010.8 0.0
04/03:00pm 31.3 32.0 17.9 44 8.6 NNE 11 20 6 11 1011.5 1011.4 0.0
04/02:30pm 30.4 31.2 18.2 48 7.8 E 11 19 6 10 1012.1 1012.0 0.0
04/02:00pm 30.1 30.8 17.9 48 7.8 E 11 19 6 10 1012.4 1012.3 0.0
04/01:30pm 29.6 30.1 18.4 51 7.2 ENE 13 20 7 11 1012.6 1012.5 0.0
04/01:00pm 28.8 28.6 17.7 51 7.0 ENE 15 24 8 13 1013.0 1012.9 0.0
04/12:30pm 28.7 29.3 18.5 54 6.5 ENE 13 20 7 11 1013.7 1013.6 0.0
04/12:00pm 27.7 27.2 17.8 54 6.3 ENE 17 22 9 12 1014.1 1014.0 0.0
04/11:30am 26.4 26.0 17.2 57 5.7 NE 15 24 8 13 1014.8 1014.7 0.0
04/11:00am 25.0 24.3 16.4 59 5.3 NNE 15 22 8 12 1015.1 1015.0 0.0
04/10:30am 24.5 24.2 16.5 61 4.9 NE 13 24 7 13 1015.6 1015.5 0.0
04/10:00am 24.3 23.6 16.3 61 4.9 NNE 15 22 8 12 1015.8 1015.7 0.0
04/09:30am 23.9 23.2 16.4 63 4.6 NE 15 20 8 11 1016.1 1016.0 0.0
04/09:00am 22.9 22.5 16.2 66 4.1 NNE 13 19 7 10 1016.2 1016.1 0.0
04/08:30am 22.6 23.8 16.9 70 3.5 NNW 6 7 3 4 1016.2 1016.1 0.0
04/08:00am 21.3 22.8 16.7 75 2.8 NNW 4 9 2 5 1016.3 1016.2 0.0
04/07:30am 20.1 21.9 17.3 84 1.7 W 4 7 2 4 1016.0 1015.9 0.0
04/07:00am 18.3 19.3 16.8 91 0.9 WSW 7 9 4 5 1016.0 1015.9 0.0
04/06:30am 17.4 19.8 17.1 98 0.2 CALM 0 0 0 0 1015.5 1015.4 0.0
04/06:00am 16.4 18.4 15.9 97 0.3 CALM 0 0 0 0 1015.6 1015.5 0.0
04/05:30am 16.6 18.6 16.0 96 0.4 CALM 0 0 0 0 1015.8 1015.7 0.0
04/05:00am 17.1 19.2 16.3 95 0.5 CALM 0 0 0 0 1015.7 1015.6 0.0
04/04:30am 17.2 18.3 16.6 96 0.4 NW 6 6 3 3 1015.7 1015.6 0.0
04/04:00am 17.3 19.4 16.2 93 0.7 CALM 0 0 0 0 1015.4 1015.3 0.0
04/03:30am 17.7 18.7 16.4 92 0.8 NNW 6 6 3 3 1015.3 1015.2 0.0
04/03:00am 18.1 20.3 16.4 90 1.0 CALM 0 0 0 0 1015.2 1015.1 0.0
04/02:30am 18.0 19.8 15.6 86 1.4 CALM 0 0 0 0 1015.2 1015.1 0.0
04/02:00am 19.1 21.1 16.1 83 1.8 CALM 0 0 0 0 1015.5 1015.4 0.0
04/01:30am 20.0 22.1 16.2 79 2.3 CALM 0 4 0 2 1015.9 1015.8 0.0
04/01:00am 20.4 21.3 16.2 77 2.5 SE 6 7 3 4 1016.1 1016.0 0.0
04/12:30am 20.6 21.8 15.8 74 2.9 WSW 4 7 2 4 1016.3 1016.2 0.0
04/12:00am 21.3 22.7 16.5 74 2.9 NE 4 7 2 4 1016.7 1016.6 0.0
 
Date/Time
EDT
Temp
°C
App
Temp
°C
Dew
Point
°C
Rel
Hum
%
Delta-T
°C
Wind Press
QNH
hPa
Press
MSL
hPa
Rain since
9am
mm
Dir  Spd
km/h
Gust
km/h
Spd
kts
Gust
kts
03/11:30pm 21.3 22.2 16.5 74 2.9 NE 7 9 4 5 1016.7 1016.6 0.0
03/11:00pm 21.3 22.2 16.5 74 2.9 ENE 7 9 4 5 1016.6 1016.5 0.0
03/10:30pm 21.3 21.8 16.5 74 2.9 E 9 11 5 6 1016.5 1016.4 0.0
03/10:00pm 21.3 21.3 16.3 73 3.0 E 11 15 6 8 1016.3 1016.2 0.0
03/09:30pm 21.0 20.8 15.8 72 3.1 E 11 17 6 9 1015.9 1015.8 0.0

Other Formats:

Comma delimited format used in spreadsheet applications
http://www.bom.gov.au/fwo/IDN60801/IDN60801.95753.axf

JavaScript Object Notation format (JSON) in row-major order
http://www.bom.gov.au/fwo/IDN60801/IDN60801.95753.json